createdAt,value
2023-10-06T00:02:56.668Z,101877.75
2023-10-06T00:06:00.605Z,101872.69
2023-10-06T00:09:08.102Z,101865.91
2023-10-06T00:12:14.662Z,101872.72
2023-10-06T00:15:25.194Z,101873.56
2023-10-06T00:18:29.381Z,101862.53
2023-10-06T00:21:33.778Z,101867.59
2023-10-06T00:24:39.274Z,101871.81
2023-10-06T00:27:43.268Z,101860.75
2023-10-06T00:30:49.468Z,101862.47
2023-10-06T00:33:53.978Z,101857.38
2023-10-06T00:36:57.794Z,101866.72
2023-10-06T00:40:11.374Z,101859.94
2023-10-06T00:43:18.094Z,101867.53
2023-10-06T00:46:21.977Z,101857.38
2023-10-06T00:49:26.078Z,101871.72
2023-10-06T00:52:34.264Z,101866.66
2023-10-06T00:55:40.703Z,101864.88
2023-10-06T00:58:45.223Z,101861.53
2023-10-06T01:01:51.214Z,101850.53
2023-10-06T01:04:55.134Z,101869.84
2023-10-06T01:07:59.787Z,101869.88
2023-10-06T01:11:12.893Z,101869.91
2023-10-06T01:14:23.035Z,101869.91
2023-10-06T01:17:27.211Z,101869.00
2023-10-06T01:20:37.288Z,101859.63
2023-10-06T01:23:42.501Z,101865.53
2023-10-06T01:26:50.374Z,101876.59
2023-10-06T01:30:15.281Z,101879.00
2023-10-06T01:33:19.181Z,101864.66
2023-10-06T01:36:24.347Z,101874.88
2023-10-06T01:39:32.930Z,101864.63
2023-10-06T01:42:37.267Z,101864.53
2023-10-06T01:45:45.382Z,101861.16
2023-10-06T01:48:49.322Z,101856.06
2023-10-06T01:55:04.768Z,101860.13
2023-10-06T01:58:12.625Z,101858.50
2023-10-06T02:01:19.995Z,101860.19
2023-10-06T02:04:26.679Z,101863.63
2023-10-06T02:07:34.795Z,101852.59
2023-10-06T02:10:43.908Z,101850.16
2023-10-06T02:13:48.404Z,101847.50
2023-10-06T02:16:56.640Z,101851.84
2023-10-06T02:20:00.637Z,101840.84
2023-10-06T02:23:05.308Z,101846.03
2023-10-06T02:26:13.620Z,101851.00
2023-10-06T02:29:23.904Z,101834.94
2023-10-06T02:32:28.021Z,101845.09
2023-10-06T02:35:31.915Z,101848.47
2023-10-06T02:38:42.770Z,101834.09
2023-10-06T02:41:48.924Z,101836.72
2023-10-06T02:44:54.737Z,101842.53
2023-10-06T02:48:00.445Z,101839.16
2023-10-06T02:51:05.337Z,101832.44
2023-10-06T02:54:21.916Z,101825.69
2023-10-06T02:57:28.107Z,101821.41
2023-10-06T03:00:32.237Z,101825.66
2023-10-06T03:03:36.072Z,101824.03
2023-10-06T03:06:39.885Z,101817.19
2023-10-06T03:09:46.506Z,101821.44
2023-10-06T03:12:52.179Z,101821.47
2023-10-06T03:15:55.999Z,101824.84
2023-10-06T03:19:01.241Z,101813.81
2023-10-06T03:22:07.112Z,101807.03
2023-10-06T03:25:18.044Z,101811.25
2023-10-06T03:28:32.601Z,101808.78
2023-10-06T03:31:46.048Z,101803.75
2023-10-06T03:34:54.152Z,101801.19
2023-10-06T03:38:09.790Z,101803.72
2023-10-06T03:41:25.869Z,101800.38
2023-10-06T03:44:32.190Z,101802.06
2023-10-06T03:47:37.762Z,101786.03
2023-10-06T03:50:44.476Z,101789.28
2023-10-06T03:53:50.126Z,101783.34
2023-10-06T03:56:55.142Z,101773.25
2023-10-06T04:00:00.463Z,101778.28
2023-10-06T04:03:05.095Z,101769.97
2023-10-06T04:06:14.081Z,101766.56
2023-10-06T04:09:28.255Z,101761.44
2023-10-06T04:12:32.320Z,101750.44
2023-10-06T04:15:39.360Z,101750.44
2023-10-06T04:18:48.957Z,101754.69
2023-10-06T04:21:53.351Z,101747.88
2023-10-06T04:24:57.127Z,101748.78
2023-10-06T04:28:00.970Z,101740.31
2023-10-06T04:31:06.875Z,101731.91
2023-10-06T04:34:11.768Z,101721.72
2023-10-06T04:37:15.606Z,101721.69
2023-10-06T04:40:21.281Z,101720.03
2023-10-06T04:43:25.069Z,101728.50
2023-10-06T04:46:30.337Z,101717.50
2023-10-06T04:49:35.280Z,101711.59
2023-10-06T04:52:39.070Z,101699.72
2023-10-06T04:55:42.981Z,101687.03
2023-10-06T04:58:46.813Z,101687.91
2023-10-06T05:01:52.071Z,101682.00
2023-10-06T05:04:55.907Z,101677.78
2023-10-06T05:07:59.743Z,101677.78
2023-10-06T05:11:04.042Z,101679.50
2023-10-06T05:14:10.415Z,101681.19
2023-10-06T05:17:17.662Z,101671.88
2023-10-06T05:20:21.731Z,101676.97
2023-10-06T05:23:25.538Z,101682.91
2023-10-06T05:26:29.886Z,101680.38
2023-10-06T05:29:37.150Z,101674.44
2023-10-06T05:32:44.080Z,101675.28
2023-10-06T05:35:47.995Z,101659.19
2023-10-06T05:38:51.996Z,101649.91
2023-10-06T05:41:55.751Z,101649.03
2023-10-06T05:45:00.388Z,101639.72
2023-10-06T05:48:08.446Z,101646.50
2023-10-06T05:51:16.262Z,101643.94
2023-10-06T05:54:23.163Z,101643.94
2023-10-06T05:57:27.957Z,101640.56
2023-10-06T06:00:32.317Z,101641.41
2023-10-06T06:03:40.206Z,101635.44
2023-10-06T06:06:48.037Z,101637.16
2023-10-06T06:09:51.837Z,101632.03
2023-10-06T06:12:55.926Z,101622.75
2023-10-06T06:16:01.042Z,101619.31
2023-10-06T06:19:07.169Z,101609.09
2023-10-06T06:22:11.497Z,101611.56
2023-10-06T06:25:15.377Z,101612.38
2023-10-06T06:28:19.258Z,101609.81
2023-10-06T06:31:23.544Z,101601.34
2023-10-06T06:34:29.140Z,101603.81
2023-10-06T06:37:33.160Z,101594.50
2023-10-06T06:40:39.287Z,101590.25
2023-10-06T06:43:47.079Z,101592.72
2023-10-06T06:46:51.101Z,101584.28
2023-10-06T06:49:56.395Z,101574.03
2023-10-06T06:53:00.216Z,101566.31
2023-10-06T06:56:07.023Z,101568.78
2023-10-06T06:59:11.056Z,101556.09
2023-10-06T07:02:15.803Z,101557.78
2023-10-06T07:05:23.353Z,101549.25
2023-10-06T07:08:28.760Z,101552.59
2023-10-06T07:11:32.639Z,101547.47
2023-10-06T07:14:36.612Z,101556.66
2023-10-06T07:17:40.803Z,101548.16
2023-10-06T07:20:46.527Z,101547.16
2023-10-06T07:23:53.256Z,101537.78
2023-10-06T07:26:57.626Z,101523.28
2023-10-06T07:30:04.811Z,101527.44
2023-10-06T07:33:11.604Z,101513.00
2023-10-06T07:36:19.354Z,101508.63
2023-10-06T07:39:23.514Z,101496.69
2023-10-06T07:42:27.359Z,101486.31
2023-10-06T07:45:33.100Z,101483.69
2023-10-06T07:48:38.759Z,101467.31
2023-10-06T07:51:46.465Z,101469.81
2023-10-06T07:54:50.576Z,101463.78
2023-10-06T07:57:54.593Z,101457.63
2023-10-06T08:00:58.332Z,101456.56
2023-10-06T08:04:02.091Z,101433.56
2023-10-06T08:07:07.420Z,101430.91
2023-10-06T08:10:15.060Z,101424.69
2023-10-06T08:13:19.338Z,101398.38
2023-10-06T08:16:23.135Z,101392.88
2023-10-06T08:19:27.340Z,101379.19
2023-10-06T08:22:35.200Z,101372.16
2023-10-06T08:25:56.826Z,101361.69
2023-10-06T08:29:02.859Z,101352.25
2023-10-06T08:32:07.789Z,101339.44
2023-10-06T08:35:14.456Z,101328.81
2023-10-06T08:38:19.768Z,101327.09
2023-10-06T08:41:27.741Z,101324.28
2023-10-06T08:44:32.917Z,101311.50
2023-10-06T08:47:49.272Z,101305.25
2023-10-06T08:51:04.680Z,101295.97
2023-10-06T08:54:14.964Z,101275.09
2023-10-06T08:57:18.943Z,101271.47
2023-10-06T09:00:25.274Z,101262.75
2023-10-06T09:03:30.669Z,101242.97
2023-10-06T09:06:34.505Z,101242.09
2023-10-06T09:09:39.850Z,101233.44
2023-10-06T09:12:44.346Z,101221.16
2023-10-06T09:15:58.575Z,101219.47
2023-10-06T09:19:02.892Z,101209.28
2023-10-06T09:22:08.277Z,101209.53
2023-10-06T09:25:13.962Z,101194.22
2023-10-06T09:28:18.681Z,101189.16
2023-10-06T09:31:37.363Z,101172.53
2023-10-06T09:34:41.325Z,101161.19
2023-10-06T09:37:45.647Z,101172.09
2023-10-06T09:40:50.783Z,101159.91
2023-10-06T09:43:55.433Z,101155.03
2023-10-06T09:47:02.233Z,101148.75
2023-10-06T09:50:07.964Z,101150.97
2023-10-06T09:53:13.515Z,101134.25
2023-10-06T09:56:20.081Z,101104.34
2023-10-06T09:59:25.197Z,101114.97
2023-10-06T10:02:29.761Z,101095.59
2023-10-06T10:05:34.207Z,101074.56
2023-10-06T10:08:42.269Z,101071.72
2023-10-06T10:11:53.284Z,101056.72
2023-10-06T10:15:13.249Z,101049.94
2023-10-06T10:18:26.019Z,101037.00
2023-10-06T10:21:29.855Z,101038.63
2023-10-06T10:27:45.713Z,101016.50
2023-10-06T10:30:51.853Z,101011.66
2023-10-06T10:33:58.125Z,100986.78
2023-10-06T10:37:17.752Z,100980.84
2023-10-06T10:40:23.283Z,100960.59
2023-10-06T10:43:28.690Z,100953.88
2023-10-06T10:46:32.924Z,100930.97
2023-10-06T10:49:37.397Z,100925.97
2023-10-06T10:52:41.283Z,100921.22
2023-10-06T10:55:45.669Z,100894.13
2023-10-06T10:58:58.253Z,100890.34
2023-10-06T11:02:09.382Z,100882.81
2023-10-06T11:05:13.628Z,100863.88
2023-10-06T11:08:17.642Z,100851.22
2023-10-06T11:11:21.905Z,100836.41
2023-10-06T11:14:28.342Z,100822.91
2023-10-06T11:17:33.742Z,100810.94
2023-10-06T11:20:39.774Z,100794.94
2023-10-06T11:23:45.100Z,100778.47
2023-10-06T11:26:49.405Z,100759.19
2023-10-06T11:29:58.499Z,100741.66
2023-10-06T11:33:03.670Z,100741.91
2023-10-06T11:36:08.263Z,100733.28
2023-10-06T11:39:12.401Z,100723.31
2023-10-06T11:42:31.128Z,100707.44
2023-10-06T11:45:38.137Z,100706.72
2023-10-06T11:48:42.035Z,100684.22
2023-10-06T11:51:46.192Z,100670.41
2023-10-06T11:54:50.808Z,100650.59
2023-10-06T11:57:55.417Z,100634.88
2023-10-06T12:01:00.748Z,100616.28
2023-10-06T12:04:07.483Z,100600.81
2023-10-06T12:07:22.703Z,100575.63
2023-10-06T12:10:26.617Z,100563.47
2023-10-06T12:13:30.402Z,100557.00
2023-10-06T12:16:37.604Z,100535.94
2023-10-06T12:19:43.332Z,100520.16
2023-10-06T12:22:48.354Z,100495.31
2023-10-06T12:25:52.224Z,100490.59
2023-10-06T12:28:56.212Z,100474.66
2023-10-06T12:32:04.564Z,100460.09
2023-10-06T12:35:09.932Z,100448.91
2023-10-06T12:38:15.924Z,100432.34
2023-10-06T12:41:20.634Z,100429.97
2023-10-06T12:44:28.496Z,100419.13
2023-10-06T12:47:33.829Z,100395.16
2023-10-06T12:50:42.391Z,100375.34
2023-10-06T12:53:46.702Z,100359.25
2023-10-06T12:56:50.556Z,100339.38
2023-10-06T12:59:54.284Z,100313.13
2023-10-06T13:02:59.661Z,100307.69
2023-10-06T13:06:04.819Z,100294.09
2023-10-06T13:09:10.210Z,100276.31
2023-10-06T13:12:13.942Z,100261.91
2023-10-06T13:15:19.973Z,100252.69
2023-10-06T13:18:25.320Z,100227.97
2023-10-06T13:21:29.542Z,100221.13
2023-10-06T13:24:35.375Z,100197.16
2023-10-06T13:27:40.725Z,100182.19
2023-10-06T13:30:45.523Z,100166.44
2023-10-06T13:33:52.947Z,100144.25
2023-10-06T13:36:56.863Z,100130.31
2023-10-06T13:40:01.092Z,100113.19
2023-10-06T13:43:08.178Z,100096.34
2023-10-06T13:46:13.482Z,100087.53
2023-10-06T13:49:20.104Z,100057.91
2023-10-06T13:52:23.876Z,100052.16
2023-10-06T13:55:27.684Z,100034.16
2023-10-06T13:58:31.561Z,100024.81
2023-10-06T14:01:35.696Z,100005.09
2023-10-06T14:04:41.825Z,100008.13
2023-10-06T14:07:46.475Z,99982.66
2023-10-06T14:10:50.963Z,99970.16
2023-10-06T14:13:58.220Z,99950.75
2023-10-06T14:17:03.555Z,99949.81
2023-10-06T14:20:24.822Z,99931.22
2023-10-06T14:23:32.186Z,99918.56
2023-10-06T14:26:36.739Z,99904.03
2023-10-06T14:29:40.541Z,99896.97
2023-10-06T14:32:56.436Z,99883.28
2023-10-06T14:36:25.892Z,99869.72
2023-10-06T14:39:47.330Z,99856.16
2023-10-06T14:43:08.307Z,99836.84
2023-10-06T14:46:12.144Z,99816.19
2023-10-06T14:49:16.025Z,99814.53
2023-10-06T14:52:21.164Z,99795.28
2023-10-06T14:55:24.995Z,99792.09
2023-10-06T14:58:28.809Z,99779.00
2023-10-06T15:01:32.711Z,99765.88
2023-10-06T15:04:36.927Z,99751.13
2023-10-06T15:07:42.634Z,99733.31
2023-10-06T15:10:48.539Z,99719.44
2023-10-06T15:13:55.362Z,99710.03
2023-10-06T15:17:01.106Z,99705.22
2023-10-06T15:20:05.940Z,99687.44
2023-10-06T15:23:14.121Z,99681.81
2023-10-06T15:26:17.982Z,99662.63
2023-10-06T15:29:22.411Z,99653.88
2023-10-06T15:32:27.855Z,99644.03
2023-10-06T15:35:37.305Z,99644.94
2023-10-06T15:38:43.686Z,99632.06
2023-10-06T15:41:47.921Z,99626.59
2023-10-06T15:44:52.375Z,99611.47
2023-10-06T15:47:56.875Z,99594.34
2023-10-06T15:51:01.158Z,99588.03
2023-10-06T15:54:07.159Z,99570.22
2023-10-06T15:57:10.959Z,99551.56
2023-10-06T16:00:15.368Z,99543.53
2023-10-06T16:03:21.369Z,99531.28
2023-10-06T16:06:27.250Z,99508.16
2023-10-06T16:09:32.418Z,99499.53
2023-10-06T16:12:36.213Z,99492.75
2023-10-06T16:15:54.731Z,99486.16
2023-10-06T16:19:07.432Z,99479.13
2023-10-06T16:22:11.287Z,99479.56
2023-10-06T16:25:16.670Z,99466.31
2023-10-06T16:28:20.459Z,99459.19
2023-10-06T16:31:24.348Z,99457.63
2023-10-06T16:34:28.184Z,99441.66
2023-10-06T16:37:32.653Z,99433.16
2023-10-06T16:40:38.095Z,99428.50
2023-10-06T16:43:42.101Z,99402.66
2023-10-06T16:46:46.189Z,99402.13
2023-10-06T16:49:50.727Z,99386.63
2023-10-06T16:52:54.800Z,99385.31
2023-10-06T16:56:00.781Z,99381.16
2023-10-06T16:59:04.684Z,99371.69
2023-10-06T17:02:08.904Z,99348.59
2023-10-06T17:05:14.563Z,99342.00
2023-10-06T17:08:18.748Z,99335.03
2023-10-06T17:11:25.226Z,99318.53
2023-10-06T17:14:29.124Z,99318.00
2023-10-06T17:17:33.643Z,99309.34
2023-10-06T17:20:38.709Z,99297.69
2023-10-06T17:23:43.805Z,99293.75
2023-10-06T17:26:49.352Z,99271.66
2023-10-06T17:29:56.757Z,99268.75
2023-10-06T17:33:00.623Z,99258.19
2023-10-06T17:36:04.861Z,99253.41
2023-10-06T17:39:09.015Z,99233.25
2023-10-06T17:42:14.541Z,99213.22
2023-10-06T17:45:18.778Z,99198.75
2023-10-06T17:48:22.749Z,99191.44
2023-10-06T17:51:26.936Z,99181.91
2023-10-06T17:54:30.885Z,99170.47
2023-10-06T17:57:36.386Z,99150.00
2023-10-06T18:00:41.552Z,99132.22
2023-10-06T18:03:48.462Z,99113.72
2023-10-06T18:06:52.702Z,99111.09
2023-10-06T18:09:56.443Z,99099.47
2023-10-06T18:13:01.575Z,99073.69
2023-10-06T18:16:06.850Z,99059.53
2023-10-06T18:19:11.912Z,99041.56
2023-10-06T18:22:15.699Z,99014.03
2023-10-06T18:25:19.702Z,99003.28
2023-10-06T18:28:25.122Z,99019.16
2023-10-06T18:31:29.375Z,99001.31
2023-10-06T18:34:33.526Z,99000.25
2023-10-06T18:37:38.430Z,98987.28
2023-10-06T18:40:52.022Z,98987.28
2023-10-06T18:43:57.437Z,98974.22
2023-10-06T18:47:01.452Z,98974.31
2023-10-06T18:50:06.962Z,98962.59
2023-10-06T18:53:10.753Z,98954.19
2023-10-06T18:56:14.832Z,98950.34
2023-10-06T18:59:20.333Z,98945.47
2023-10-06T19:02:24.768Z,98943.84
2023-10-06T19:05:28.673Z,98921.72
2023-10-06T19:08:34.851Z,98926.31
2023-10-06T19:11:38.958Z,98920.78
2023-10-06T19:14:44.295Z,98896.22
2023-10-06T19:17:48.258Z,98899.63
2023-10-06T19:21:01.313Z,98900.25
2023-10-06T19:24:06.443Z,98895.63
2023-10-06T19:27:12.384Z,98889.13
2023-10-06T19:30:17.702Z,98876.72
2023-10-06T19:33:21.666Z,98878.97
2023-10-06T19:36:25.477Z,98891.75
2023-10-06T19:39:29.551Z,98880.50
2023-10-06T19:42:33.545Z,98877.44
2023-10-06T19:45:41.820Z,98872.09
2023-10-06T19:48:47.399Z,98868.13
2023-10-06T19:51:53.335Z,98860.19
2023-10-06T19:54:57.067Z,98855.97
2023-10-06T19:58:00.936Z,98859.56
2023-10-06T20:01:08.611Z,98848.22
2023-10-06T20:04:12.496Z,98845.28
2023-10-06T20:07:16.251Z,98853.00
2023-10-06T20:10:22.817Z,98852.41
2023-10-06T20:13:28.018Z,98841.38
2023-10-06T20:16:34.753Z,98838.00
2023-10-06T20:19:39.783Z,98851.03
2023-10-06T20:22:43.607Z,98847.00
2023-10-06T20:25:47.464Z,98846.75
2023-10-06T20:28:51.578Z,98852.75
2023-10-06T20:31:56.724Z,98844.66
2023-10-06T20:35:00.731Z,98842.91
2023-10-06T20:38:04.779Z,98851.44
2023-10-06T20:41:08.566Z,98854.22
2023-10-06T20:44:13.336Z,98839.31
2023-10-06T20:47:18.914Z,98838.81
2023-10-06T20:50:22.789Z,98844.56
2023-10-06T20:53:29.471Z,98846.41
2023-10-06T20:56:33.309Z,98847.56
2023-10-06T20:59:37.718Z,98837.28
2023-10-06T21:02:43.476Z,98843.03
2023-10-06T21:05:47.629Z,98844.22
2023-10-06T21:08:53.563Z,98827.50
2023-10-06T21:11:57.304Z,98833.56
2023-10-06T21:15:01.156Z,98824.94
2023-10-06T21:18:08.311Z,98830.56
2023-10-06T21:21:12.057Z,98816.19
2023-10-06T21:24:15.829Z,98822.97
2023-10-06T21:27:19.674Z,98815.94
2023-10-06T21:30:23.989Z,98809.84
2023-10-06T21:33:29.140Z,98815.94
2023-10-06T21:36:33.128Z,98813.00
2023-10-06T21:39:36.988Z,98809.19
2023-10-06T21:42:41.281Z,98809.19
2023-10-06T21:45:45.059Z,98814.75
2023-10-06T21:48:50.739Z,98798.53
2023-10-06T21:51:54.612Z,98795.13
2023-10-06T21:54:58.432Z,98785.13
2023-10-06T21:58:02.176Z,98784.84
2023-10-06T22:01:06.174Z,98788.13
2023-10-06T22:04:14.607Z,98778.66
2023-10-06T22:07:18.900Z,98778.56
2023-10-06T22:10:25.696Z,98770.84
2023-10-06T22:13:32.943Z,98776.91
2023-10-06T22:16:37.069Z,98759.66
2023-10-06T22:19:43.058Z,98756.88
2023-10-06T22:22:49.966Z,98756.03
2023-10-06T22:25:53.755Z,98748.91
2023-10-06T22:28:57.598Z,98743.78
2023-10-06T22:32:01.714Z,98743.19
2023-10-06T22:35:07.350Z,98741.44
2023-10-06T22:38:11.785Z,98737.38
2023-10-06T22:41:18.715Z,98740.19
2023-10-06T22:44:22.918Z,98735.75
2023-10-06T22:47:26.866Z,98733.28
2023-10-06T22:50:32.264Z,98749.63
2023-10-06T22:53:39.597Z,98765.03
2023-10-06T22:56:43.452Z,98768.53
2023-10-06T22:59:49.176Z,98764.69
2023-10-06T23:02:54.748Z,98771.78
2023-10-06T23:06:02.940Z,98762.81
2023-10-06T23:09:07.425Z,98779.28
2023-10-06T23:12:11.244Z,98776.66
2023-10-06T23:15:16.226Z,98784.25
2023-10-06T23:18:23.691Z,98802.66
2023-10-06T23:21:29.086Z,98795.97
2023-10-06T23:24:49.150Z,98805.78
2023-10-06T23:27:53.911Z,98823.50
2023-10-06T23:30:59.473Z,98836.53
2023-10-06T23:34:03.436Z,98852.41
2023-10-06T23:37:09.598Z,98871.78
2023-10-06T23:40:21.982Z,98880.03
2023-10-06T23:43:30.887Z,98896.75
2023-10-06T23:46:35.210Z,98897.16
2023-10-06T23:49:41.461Z,98916.75
2023-10-06T23:52:47.483Z,98923.16
2023-10-06T23:55:51.914Z,98928.97
2023-10-06T23:58:56.786Z,98945.09
